sensor_id;sensor_type;location;lat;lon;timestamp;pressure;altitude;pressure_sealevel;temperature;humidity
73700;BME280;62005;50.082;8.988;2023-02-24T00:02:06;100166.84;;;9.84;81.47
73700;BME280;62005;50.082;8.988;2023-02-24T00:04:36;100148.31;;;9.69;81.61
73700;BME280;62005;50.082;8.988;2023-02-24T00:07:08;100126.84;;;9.56;81.14
73700;BME280;62005;50.082;8.988;2023-02-24T00:09:34;100162.72;;;9.81;81.58
73700;BME280;62005;50.082;8.988;2023-02-24T00:12:06;100124.75;;;9.58;81.70
73700;BME280;62005;50.082;8.988;2023-02-24T00:14:36;100143.34;;;9.66;81.23
73700;BME280;62005;50.082;8.988;2023-02-24T00:17:03;100141.50;;;9.67;81.14
73700;BME280;62005;50.082;8.988;2023-02-24T00:19:32;100097.44;;;9.48;81.13
73700;BME280;62005;50.082;8.988;2023-02-24T00:21:57;100159.72;;;9.89;81.06
73700;BME280;62005;50.082;8.988;2023-02-24T00:24:24;100163.03;;;9.91;81.56
73700;BME280;62005;50.082;8.988;2023-02-24T00:26:55;100150.03;;;9.82;81.10
73700;BME280;62005;50.082;8.988;2023-02-24T00:29:21;100159.13;;;9.87;81.21
73700;BME280;62005;50.082;8.988;2023-02-24T00:31:51;100143.22;;;9.79;81.22
73700;BME280;62005;50.082;8.988;2023-02-24T00:34:23;100152.97;;;9.80;81.21
73700;BME280;62005;50.082;8.988;2023-02-24T00:36:49;100151.94;;;9.81;81.16
73700;BME280;62005;50.082;8.988;2023-02-24T00:39:14;100150.88;;;9.82;81.31
73700;BME280;62005;50.082;8.988;2023-02-24T00:41:41;100146.06;;;9.84;81.05
73700;BME280;62005;50.082;8.988;2023-02-24T00:44:09;100131.19;;;9.75;81.15
73700;BME280;62005;50.082;8.988;2023-02-24T00:46:43;100141.13;;;9.81;81.07
73700;BME280;62005;50.082;8.988;2023-02-24T00:49:18;100135.13;;;9.79;81.16
73700;BME280;62005;50.082;8.988;2023-02-24T00:51:46;100115.31;;;9.67;81.17
73700;BME280;62005;50.082;8.988;2023-02-24T00:54:12;100125.22;;;9.73;80.92
73700;BME280;62005;50.082;8.988;2023-02-24T00:56:40;100109.28;;;9.65;81.16
73700;BME280;62005;50.082;8.988;2023-02-24T00:59:11;100050.94;;;9.28;81.15
73700;BME280;62005;50.082;8.988;2023-02-24T01:01:37;100091.16;;;9.54;81.13
73700;BME280;62005;50.082;8.988;2023-02-24T01:04:04;100132.50;;;9.73;80.41
73700;BME280;62005;50.082;8.988;2023-02-24T01:06:31;100120.84;;;9.72;80.86
73700;BME280;62005;50.082;8.988;2023-02-24T01:08:57;100130.00;;;9.71;80.34
73700;BME280;62005;50.082;8.988;2023-02-24T01:11:26;100122.16;;;9.70;80.46
73700;BME280;62005;50.082;8.988;2023-02-24T01:14:24;100118.00;;;9.67;80.09
73700;BME280;62005;50.082;8.988;2023-02-24T01:16:50;100084.25;;;9.40;80.95
73700;BME280;62005;50.082;8.988;2023-02-24T01:19:20;100114.69;;;9.65;80.52
73700;BME280;62005;50.082;8.988;2023-02-24T01:21:46;100101.94;;;9.54;80.92
73700;BME280;62005;50.082;8.988;2023-02-24T01:24:12;100118.91;;;9.61;80.44
73700;BME280;62005;50.082;8.988;2023-02-24T01:26:40;100099.84;;;9.56;80.78
73700;BME280;62005;50.082;8.988;2023-02-24T01:29:05;100089.97;;;9.50;80.71
73700;BME280;62005;50.082;8.988;2023-02-24T01:31:35;100101.50;;;9.57;80.82
73700;BME280;62005;50.082;8.988;2023-02-24T01:34:01;100078.84;;;9.40;80.79
73700;BME280;62005;50.082;8.988;2023-02-24T01:36:31;100076.72;;;9.42;80.71
73700;BME280;62005;50.082;8.988;2023-02-24T01:38:58;100053.19;;;9.31;81.21
73700;BME280;62005;50.082;8.988;2023-02-24T01:41:24;100030.53;;;9.14;80.49
73700;BME280;62005;50.082;8.988;2023-02-24T01:46:35;100023.34;;;9.08;80.80
73700;BME280;62005;50.082;8.988;2023-02-24T01:49:16;100016.94;;;9.02;81.17
73700;BME280;62005;50.082;8.988;2023-02-24T01:51:55;100038.78;;;9.19;81.34
73700;BME280;62005;50.082;8.988;2023-02-24T01:54:26;100055.28;;;9.29;80.77
73700;BME280;62005;50.082;8.988;2023-02-24T01:56:56;100033.44;;;9.12;80.96
73700;BME280;62005;50.082;8.988;2023-02-24T01:59:24;100049.88;;;9.29;81.47
73700;BME280;62005;50.082;8.988;2023-02-24T02:01:54;100043.75;;;9.22;80.90
73700;BME280;62005;50.082;8.988;2023-02-24T02:04:49;100013.59;;;9.07;81.19
73700;BME280;62005;50.082;8.988;2023-02-24T02:07:19;100007.44;;;9.00;81.07
73700;BME280;62005;50.082;8.988;2023-02-24T02:09:48;100042.91;;;9.21;81.53
73700;BME280;62005;50.082;8.988;2023-02-24T02:12:15;100015.69;;;9.05;81.05
73700;BME280;62005;50.082;8.988;2023-02-24T02:14:44;99999.19;;;8.95;81.55
73700;BME280;62005;50.082;8.988;2023-02-24T02:17:31;100065.19;;;9.35;81.01
73700;BME280;62005;50.082;8.988;2023-02-24T02:31:16;100057.97;;;9.29;82.25
73700;BME280;62005;50.082;8.988;2023-02-24T02:37:16;100032.66;;;9.12;81.55
73700;BME280;62005;50.082;8.988;2023-02-24T02:42:29;100052.41;;;9.24;82.56
73700;BME280;62005;50.082;8.988;2023-02-24T02:45:08;100050.34;;;9.26;81.93
73700;BME280;62005;50.082;8.988;2023-02-24T02:48:02;100049.16;;;9.22;82.26
73700;BME280;62005;50.082;8.988;2023-02-24T02:50:40;100037.13;;;9.18;82.01
73700;BME280;62005;50.082;8.988;2023-02-24T02:53:19;100035.06;;;9.20;82.32
73700;BME280;62005;50.082;8.988;2023-02-24T02:56:10;100018.16;;;9.06;82.27
73700;BME280;62005;50.082;8.988;2023-02-24T02:58:47;100035.50;;;9.17;81.91
73700;BME280;62005;50.082;8.988;2023-02-24T03:01:18;100037.97;;;9.18;81.93
73700;BME280;62005;50.082;8.988;2023-02-24T03:03:48;100045.00;;;9.19;82.62
73700;BME280;62005;50.082;8.988;2023-02-24T03:06:24;100043.16;;;9.20;82.03
73700;BME280;62005;50.082;8.988;2023-02-24T03:09:04;100026.81;;;9.15;82.81
73700;BME280;62005;50.082;8.988;2023-02-24T03:11:37;100024.72;;;9.17;82.84
73700;BME280;62005;50.082;8.988;2023-02-24T03:14:04;100028.44;;;9.16;82.04
73700;BME280;62005;50.082;8.988;2023-02-24T03:16:32;100020.56;;;9.14;82.58
73700;BME280;62005;50.082;8.988;2023-02-24T03:19:02;100019.75;;;9.14;82.91
73700;BME280;62005;50.082;8.988;2023-02-24T03:21:33;100014.81;;;9.11;82.75
73700;BME280;62005;50.082;8.988;2023-02-24T03:24:01;100015.41;;;9.13;83.14
73700;BME280;62005;50.082;8.988;2023-02-24T03:29:31;100012.09;;;9.11;83.17
73700;BME280;62005;50.082;8.988;2023-02-24T03:32:12;100004.47;;;9.08;82.64
73700;BME280;62005;50.082;8.988;2023-02-24T03:37:24;100005.97;;;9.04;82.89
73700;BME280;62005;50.082;8.988;2023-02-24T03:40:01;100007.22;;;9.01;83.46
73700;BME280;62005;50.082;8.988;2023-02-24T03:42:41;100002.66;;;9.02;83.24
73700;BME280;62005;50.082;8.988;2023-02-24T03:45:07;99994.63;;;8.95;83.11
73700;BME280;62005;50.082;8.988;2023-02-24T03:47:33;99995.44;;;8.96;83.29
73700;BME280;62005;50.082;8.988;2023-02-24T03:49:59;99998.34;;;8.94;82.88
73700;BME280;62005;50.082;8.988;2023-02-24T03:52:30;100000.41;;;8.99;82.89
73700;BME280;62005;50.082;8.988;2023-02-24T04:00:33;99978.19;;;8.79;83.16
73700;BME280;62005;50.082;8.988;2023-02-24T04:03:35;100008.34;;;8.94;83.23
73700;BME280;62005;50.082;8.988;2023-02-24T04:06:17;99960.03;;;8.68;83.42
73700;BME280;62005;50.082;8.988;2023-02-24T04:08:57;99922.88;;;8.52;83.65
73700;BME280;62005;50.082;8.988;2023-02-24T04:11:26;99994.69;;;8.89;83.70
73700;BME280;62005;50.082;8.988;2023-02-24T04:14:01;99928.72;;;8.49;83.58
73700;BME280;62005;50.082;8.988;2023-02-24T04:16:38;99983.53;;;8.85;83.26
73700;BME280;62005;50.082;8.988;2023-02-24T04:19:10;99958.78;;;8.70;82.99
73700;BME280;62005;50.082;8.988;2023-02-24T04:21:42;99988.09;;;8.85;83.33
73700;BME280;62005;50.082;8.988;2023-02-24T04:24:11;99940.25;;;8.56;83.00
73700;BME280;62005;50.082;8.988;2023-02-24T04:26:44;99957.94;;;8.70;83.71
73700;BME280;62005;50.082;8.988;2023-02-24T04:29:14;99891.56;;;8.33;83.61
73700;BME280;62005;50.082;8.988;2023-02-24T04:31:52;99912.22;;;8.39;83.58
73700;BME280;62005;50.082;8.988;2023-02-24T04:34:25;99900.84;;;8.37;83.43
73700;BME280;62005;50.082;8.988;2023-02-24T04:36:57;99888.25;;;8.31;83.42
73700;BME280;62005;50.082;8.988;2023-02-24T04:39:29;99886.75;;;8.35;83.83
73700;BME280;62005;50.082;8.988;2023-02-24T04:41:58;99870.44;;;8.30;83.50
73700;BME280;62005;50.082;8.988;2023-02-24T04:44:26;99890.06;;;8.37;83.82
73700;BME280;62005;50.082;8.988;2023-02-24T04:46:54;99905.09;;;8.51;83.10
73700;BME280;62005;50.082;8.988;2023-02-24T04:49:20;99897.69;;;8.40;83.63
73700;BME280;62005;50.082;8.988;2023-02-24T04:51:48;99903.41;;;8.50;83.85
73700;BME280;62005;50.082;8.988;2023-02-24T04:54:16;99890.69;;;8.39;83.71
73700;BME280;62005;50.082;8.988;2023-02-24T04:56:44;99890.22;;;8.42;83.53
73700;BME280;62005;50.082;8.988;2023-02-24T04:59:12;99914.06;;;8.63;83.80
73700;BME280;62005;50.082;8.988;2023-02-24T05:01:39;99880.72;;;8.39;83.73
73700;BME280;62005;50.082;8.988;2023-02-24T05:04:06;99862.22;;;8.25;83.62
73700;BME280;62005;50.082;8.988;2023-02-24T05:06:33;99861.78;;;8.28;83.44
73700;BME280;62005;50.082;8.988;2023-02-24T05:08:58;99839.50;;;8.14;83.84
73700;BME280;62005;50.082;8.988;2023-02-24T05:11:26;99891.00;;;8.49;84.17
73700;BME280;62005;50.082;8.988;2023-02-24T05:13:56;99844.47;;;8.11;84.37
73700;BME280;62005;50.082;8.988;2023-02-24T05:16:21;99880.78;;;8.33;83.97
73700;BME280;62005;50.082;8.988;2023-02-24T05:18:47;99845.09;;;8.13;83.89
73700;BME280;62005;50.082;8.988;2023-02-24T05:21:37;99864.72;;;8.20;84.19
73700;BME280;62005;50.082;8.988;2023-02-24T05:24:03;99830.06;;;7.98;84.63
73700;BME280;62005;50.082;8.988;2023-02-24T05:26:36;99847.34;;;8.16;84.64
73700;BME280;62005;50.082;8.988;2023-02-24T05:29:03;99832.50;;;8.07;83.74
73700;BME280;62005;50.082;8.988;2023-02-24T05:31:31;99859.75;;;8.17;84.33
73700;BME280;62005;50.082;8.988;2023-02-24T05:34:00;99844.47;;;8.11;84.57
73700;BME280;62005;50.082;8.988;2023-02-24T05:36:31;99830.47;;;8.02;84.03
73700;BME280;62005;50.082;8.988;2023-02-24T05:39:00;99851.66;;;8.17;84.61
73700;BME280;62005;50.082;8.988;2023-02-24T05:41:36;99859.91;;;8.22;84.48
73700;BME280;62005;50.082;8.988;2023-02-24T05:44:05;99836.25;;;8.06;84.56
73700;BME280;62005;50.082;8.988;2023-02-24T05:46:38;99856.84;;;8.25;84.70
73700;BME280;62005;50.082;8.988;2023-02-24T05:49:11;99857.22;;;8.22;84.15
73700;BME280;62005;50.082;8.988;2023-02-24T05:51:45;99865.09;;;8.23;84.70
73700;BME280;62005;50.082;8.988;2023-02-24T05:54:18;99883.66;;;8.38;85.39
73700;BME280;62005;50.082;8.988;2023-02-24T05:56:50;99828.38;;;8.04;84.64
73700;BME280;62005;50.082;8.988;2023-02-24T05:59:16;99883.66;;;8.38;84.74
73700;BME280;62005;50.082;8.988;2023-02-24T06:01:46;99856.41;;;8.21;85.19
73700;BME280;62005;50.082;8.988;2023-02-24T06:04:14;99828.34;;;8.11;85.24
73700;BME280;62005;50.082;8.988;2023-02-24T06:07:04;99828.78;;;8.08;84.91
73700;BME280;62005;50.082;8.988;2023-02-24T06:09:44;99858.47;;;8.26;84.81
73700;BME280;62005;50.082;8.988;2023-02-24T06:12:22;99819.31;;;7.98;85.12
73700;BME280;62005;50.082;8.988;2023-02-24T06:14:48;99817.22;;;8.01;85.46
73700;BME280;62005;50.082;8.988;2023-02-24T06:17:17;99877.03;;;8.34;85.14
73700;BME280;62005;50.082;8.988;2023-02-24T06:19:57;99852.28;;;8.19;85.32
73700;BME280;62005;50.082;8.988;2023-02-24T06:22:25;99877.50;;;8.31;85.35
73700;BME280;62005;50.082;8.988;2023-02-24T06:24:52;99872.56;;;8.28;85.53
73700;BME280;62005;50.082;8.988;2023-02-24T06:27:21;99844.94;;;8.08;84.85
73700;BME280;62005;50.082;8.988;2023-02-24T06:29:52;99792.97;;;7.82;84.91
73700;BME280;62005;50.082;8.988;2023-02-24T06:32:20;99877.25;;;8.32;84.99
73700;BME280;62005;50.082;8.988;2023-02-24T06:34:47;99842.63;;;8.11;85.08
73700;BME280;62005;50.082;8.988;2023-02-24T06:37:16;99870.03;;;8.33;84.37
73700;BME280;62005;50.082;8.988;2023-02-24T06:39:42;99815.66;;;7.93;84.32
73700;BME280;62005;50.082;8.988;2023-02-24T06:42:08;99844.47;;;8.11;84.59
73700;BME280;62005;50.082;8.988;2023-02-24T06:44:36;99803.22;;;7.92;84.88
73700;BME280;62005;50.082;8.988;2023-02-24T06:47:03;99802.41;;;7.91;84.45
73700;BME280;62005;50.082;8.988;2023-02-24T06:49:28;99790.44;;;7.87;84.34
73700;BME280;62005;50.082;8.988;2023-02-24T06:51:55;99834.94;;;8.15;84.80
73700;BME280;62005;50.082;8.988;2023-02-24T06:54:22;99804.06;;;7.92;84.15
73700;BME280;62005;50.082;8.988;2023-02-24T06:56:51;99838.66;;;8.14;84.13
73700;BME280;62005;50.082;8.988;2023-02-24T06:59:16;99860.13;;;8.27;83.53
73700;BME280;62005;50.082;8.988;2023-02-24T07:01:48;99881.53;;;8.40;83.72
73700;BME280;62005;50.082;8.988;2023-02-24T07:04:14;99839.44;;;8.21;84.26
73700;BME280;62005;50.082;8.988;2023-02-24T07:06:46;99797.03;;;7.91;83.75
73700;BME280;62005;50.082;8.988;2023-02-24T07:09:15;99837.41;;;8.16;84.17
73700;BME280;62005;50.082;8.988;2023-02-24T07:11:42;99852.66;;;8.29;83.50
73700;BME280;62005;50.082;8.988;2023-02-24T07:14:11;99808.56;;;7.98;83.85
73700;BME280;62005;50.082;8.988;2023-02-24T07:16:38;99856.41;;;8.28;83.72
73700;BME280;62005;50.082;8.988;2023-02-24T07:19:17;99860.50;;;8.30;84.10
73700;BME280;62005;50.082;8.988;2023-02-24T07:21:50;99809.94;;;8.08;83.78
73700;BME280;62005;50.082;8.988;2023-02-24T07:24:29;99808.44;;;8.12;83.97
73700;BME280;62005;50.082;8.988;2023-02-24T07:27:05;99796.03;;;8.11;83.97
73700;BME280;62005;50.082;8.988;2023-02-24T07:29:49;99797.09;;;8.10;83.81
73700;BME280;62005;50.082;8.988;2023-02-24T07:32:23;99848.66;;;8.38;83.49
73700;BME280;62005;50.082;8.988;2023-02-24T07:34:49;99851.66;;;8.48;84.01
73700;BME280;62005;50.082;8.988;2023-02-24T07:37:14;99857.63;;;8.50;84.08
73700;BME280;62005;50.082;8.988;2023-02-24T07:39:40;99849.53;;;8.50;83.66
73700;BME280;62005;50.082;8.988;2023-02-24T07:42:09;99851.16;;;8.57;83.46
73700;BME280;62005;50.082;8.988;2023-02-24T07:44:35;99854.06;;;8.56;83.63
73700;BME280;62005;50.082;8.988;2023-02-24T07:47:02;99846.56;;;8.58;83.28
73700;BME280;62005;50.082;8.988;2023-02-24T07:49:31;99841.16;;;8.58;83.52
73700;BME280;62005;50.082;8.988;2023-02-24T07:51:57;99824.28;;;8.51;83.62
73700;BME280;62005;50.082;8.988;2023-02-24T07:54:24;99843.00;;;8.64;83.03
73700;BME280;62005;50.082;8.988;2023-02-24T07:56:51;99841.31;;;8.63;83.42
73700;BME280;62005;50.082;8.988;2023-02-24T07:59:25;99828.75;;;8.57;83.23
73700;BME280;62005;50.082;8.988;2023-02-24T08:01:51;99825.78;;;8.65;83.27
73700;BME280;62005;50.082;8.988;2023-02-24T08:04:24;99834.84;;;8.70;83.07
73700;BME280;62005;50.082;8.988;2023-02-24T08:06:51;99831.09;;;8.71;83.07
73700;BME280;62005;50.082;8.988;2023-02-24T08:09:22;99790.75;;;8.47;83.36
73700;BME280;62005;50.082;8.988;2023-02-24T08:12:09;99782.06;;;8.45;83.53
73700;BME280;62005;50.082;8.988;2023-02-24T08:14:35;99827.94;;;8.74;82.99
73700;BME280;62005;50.082;8.988;2023-02-24T08:17:11;99771.66;;;8.48;82.48
73700;BME280;62005;50.082;8.988;2023-02-24T08:19:40;99767.56;;;8.46;83.14
73700;BME280;62005;50.082;8.988;2023-02-24T08:22:09;99814.84;;;8.78;82.66
73700;BME280;62005;50.082;8.988;2023-02-24T08:24:58;99806.19;;;8.76;82.85
73700;BME280;62005;50.082;8.988;2023-02-24T08:27:31;99809.00;;;8.81;82.88
73700;BME280;62005;50.082;8.988;2023-02-24T08:29:58;99778.50;;;8.69;82.06
73700;BME280;62005;50.082;8.988;2023-02-24T08:32:37;99811.03;;;8.85;82.50
73700;BME280;62005;50.082;8.988;2023-02-24T08:35:16;99802.72;;;8.87;82.77
73700;BME280;62005;50.082;8.988;2023-02-24T08:37:47;99798.97;;;8.88;81.70
73700;BME280;62005;50.082;8.988;2023-02-24T08:43:07;99788.19;;;8.88;82.21
73700;BME280;62005;50.082;8.988;2023-02-24T08:48:48;99778.16;;;8.95;82.01
73700;BME280;62005;50.082;8.988;2023-02-24T08:51:20;99775.25;;;8.96;81.31
73700;BME280;62005;50.082;8.988;2023-02-24T08:53:50;99766.91;;;8.98;81.64
73700;BME280;62005;50.082;8.988;2023-02-24T08:56:21;99768.13;;;9.02;82.01
73700;BME280;62005;50.082;8.988;2023-02-24T08:59:01;99767.66;;;9.05;81.75
73700;BME280;62005;50.082;8.988;2023-02-24T09:01:32;99766.84;;;9.04;80.32
73700;BME280;62005;50.082;8.988;2023-02-24T09:04:11;99759.59;;;9.05;80.06
73700;BME280;62005;50.082;8.988;2023-02-24T09:06:48;99748.06;;;8.98;80.92
73700;BME280;62005;50.082;8.988;2023-02-24T09:09:18;99768.41;;;9.12;81.29
73700;BME280;62005;50.082;8.988;2023-02-24T09:11:58;99742.81;;;9.03;80.24
73700;BME280;62005;50.082;8.988;2023-02-24T09:14:26;99760.47;;;9.17;80.38
73700;BME280;62005;50.082;8.988;2023-02-24T09:16:52;99758.94;;;9.21;81.22
73700;BME280;62005;50.082;8.988;2023-02-24T09:19:40;99755.22;;;9.22;80.28
73700;BME280;62005;50.082;8.988;2023-02-24T09:22:13;99725.00;;;9.02;80.72
73700;BME280;62005;50.082;8.988;2023-02-24T09:27:53;99755.34;;;9.27;80.09
73700;BME280;62005;50.082;8.988;2023-02-24T09:30:22;99753.81;;;9.31;79.44
73700;BME280;62005;50.082;8.988;2023-02-24T09:33:15;99754.41;;;9.33;78.82
73700;BME280;62005;50.082;8.988;2023-02-24T09:35:53;99736.59;;;9.32;80.39
73700;BME280;62005;50.082;8.988;2023-02-24T09:38:27;99738.13;;;9.40;78.81
73700;BME280;62005;50.082;8.988;2023-02-24T09:41:35;99729.34;;;9.44;79.13
73700;BME280;62005;50.082;8.988;2023-02-24T09:44:46;99726.78;;;9.49;79.76
73700;BME280;62005;50.082;8.988;2023-02-24T09:47:43;99718.44;;;9.51;78.54
73700;BME280;62005;50.082;8.988;2023-02-24T09:52:54;99687.38;;;9.48;78.16
73700;BME280;62005;50.082;8.988;2023-02-24T10:00:49;99695.16;;;9.79;78.66
73700;BME280;62005;50.082;8.988;2023-02-24T10:03:22;99698.69;;;9.91;78.62
73700;BME280;62005;50.082;8.988;2023-02-24T10:06:18;99689.63;;;9.97;77.85
73700;BME280;62005;50.082;8.988;2023-02-24T10:08:51;99685.44;;;10.01;77.50
73700;BME280;62005;50.082;8.988;2023-02-24T10:11:18;99669.78;;;10.03;77.27
73700;BME280;62005;50.082;8.988;2023-02-24T10:13:58;99666.78;;;10.11;76.71
73700;BME280;62005;50.082;8.988;2023-02-24T10:16:25;99661.38;;;10.11;76.16
73700;BME280;62005;50.082;8.988;2023-02-24T10:21:47;99661.00;;;10.19;76.30
73700;BME280;62005;50.082;8.988;2023-02-24T10:27:17;99653.56;;;10.26;75.93
73700;BME280;62005;50.082;8.988;2023-02-24T10:32:49;99639.03;;;10.27;75.51
73700;BME280;62005;50.082;8.988;2023-02-24T10:35:18;99641.84;;;10.32;75.32
73700;BME280;62005;50.082;8.988;2023-02-24T10:37:44;99620.03;;;10.22;74.63
73700;BME280;62005;50.082;8.988;2023-02-24T10:40:10;99635.13;;;10.35;73.46
73700;BME280;62005;50.082;8.988;2023-02-24T10:42:41;99625.88;;;10.31;73.09
73700;BME280;62005;50.082;8.988;2023-02-24T10:45:24;99586.09;;;10.15;74.18
73700;BME280;62005;50.082;8.988;2023-02-24T10:47:55;99594.63;;;10.23;74.64
73700;BME280;62005;50.082;8.988;2023-02-24T10:50:25;99611.59;;;10.47;73.96
73700;BME280;62005;50.082;8.988;2023-02-24T10:53:06;99598.94;;;10.47;73.19
73700;BME280;62005;50.082;8.988;2023-02-24T10:55:37;99613.78;;;10.62;73.16
73700;BME280;62005;50.082;8.988;2023-02-24T10:58:30;99605.19;;;10.65;71.99
73700;BME280;62005;50.082;8.988;2023-02-24T11:01:11;99594.47;;;10.70;71.90
73700;BME280;62005;50.082;8.988;2023-02-24T11:03:47;99601.22;;;10.84;69.32
73700;BME280;62005;50.082;8.988;2023-02-24T11:06:30;99592.03;;;10.85;70.60
73700;BME280;62005;50.082;8.988;2023-02-24T11:12:21;99584.38;;;10.93;69.09
73700;BME280;62005;50.082;8.988;2023-02-24T11:15:16;99579.28;;;10.97;68.39
73700;BME280;62005;50.082;8.988;2023-02-24T11:18:02;99570.09;;;10.98;69.80
73700;BME280;62005;50.082;8.988;2023-02-24T11:20:32;99563.66;;;10.99;68.82
73700;BME280;62005;50.082;8.988;2023-02-24T11:23:00;99554.03;;;11.08;69.53
73700;BME280;62005;50.082;8.988;2023-02-24T11:28:01;99549.13;;;11.21;67.76
73700;BME280;62005;50.082;8.988;2023-02-24T11:30:44;99538.13;;;11.28;66.75
73700;BME280;62005;50.082;8.988;2023-02-24T11:33:39;99528.47;;;11.32;67.64
73700;BME280;62005;50.082;8.988;2023-02-24T11:39:48;99522.47;;;11.46;67.45
73700;BME280;62005;50.082;8.988;2023-02-24T11:42:39;99513.50;;;11.46;64.56
73700;BME280;62005;50.082;8.988;2023-02-24T11:47:58;99509.31;;;11.55;63.51
73700;BME280;62005;50.082;8.988;2023-02-24T11:50:54;99503.97;;;11.60;62.95
73700;BME280;62005;50.082;8.988;2023-02-24T11:53:48;99494.06;;;11.65;64.09
73700;BME280;62005;50.082;8.988;2023-02-24T12:04:29;99466.91;;;11.82;61.81
73700;BME280;62005;50.082;8.988;2023-02-24T12:07:00;99479.47;;;11.88;63.07
73700;BME280;62005;50.082;8.988;2023-02-24T12:09:35;99462.59;;;11.81;63.82
73700;BME280;62005;50.082;8.988;2023-02-24T12:12:12;99453.31;;;11.77;62.81
73700;BME280;62005;50.082;8.988;2023-02-24T12:20:04;99423.56;;;11.60;61.23
73700;BME280;62005;50.082;8.988;2023-02-24T12:22:41;99457.19;;;11.81;61.60
73700;BME280;62005;50.082;8.988;2023-02-24T12:25:11;99447.16;;;11.82;62.38
73700;BME280;62005;50.082;8.988;2023-02-24T12:41:28;99400.25;;;11.76;59.41
73700;BME280;62005;50.082;8.988;2023-02-24T12:46:33;99400.25;;;11.76;59.21
73700;BME280;62005;50.082;8.988;2023-02-24T12:49:16;99400.94;;;11.88;59.33
73700;BME280;62005;50.082;8.988;2023-02-24T12:54:42;99399.22;;;11.82;59.57
73700;BME280;62005;50.082;8.988;2023-02-24T13:00:08;99383.38;;;11.69;59.96
73700;BME280;62005;50.082;8.988;2023-02-24T13:02:51;99387.75;;;11.70;60.31
73700;BME280;62005;50.082;8.988;2023-02-24T13:05:29;99370.28;;;11.61;59.94
73700;BME280;62005;50.082;8.988;2023-02-24T13:08:26;99382.28;;;11.65;59.75
73700;BME280;62005;50.082;8.988;2023-02-24T13:11:24;99386.50;;;11.61;60.38
73700;BME280;62005;50.082;8.988;2023-02-24T13:16:32;99376.38;;;11.51;60.54
73700;BME280;62005;50.082;8.988;2023-02-24T13:19:26;99375.25;;;11.47;59.75
73700;BME280;62005;50.082;8.988;2023-02-24T13:22:19;99370.03;;;11.41;60.20
73700;BME280;62005;50.082;8.988;2023-02-24T13:27:35;99353.59;;;11.26;60.56
73700;BME280;62005;50.082;8.988;2023-02-24T13:30:06;99363.38;;;11.27;60.01
73700;BME280;62005;50.082;8.988;2023-02-24T13:33:43;99338.84;;;11.12;59.66
73700;BME280;62005;50.082;8.988;2023-02-24T13:35:45;99357.84;;;11.17;60.15
73700;BME280;62005;50.082;8.988;2023-02-24T13:38:25;99351.34;;;11.18;60.62
73700;BME280;62005;50.082;8.988;2023-02-24T13:40:50;99337.69;;;11.08;61.03
73700;BME280;62005;50.082;8.988;2023-02-24T13:43:22;99350.78;;;11.16;60.59
73700;BME280;62005;50.082;8.988;2023-02-24T13:45:55;99336.63;;;11.09;60.72
73700;BME280;62005;50.082;8.988;2023-02-24T13:48:47;99340.47;;;11.13;60.58
73700;BME280;62005;50.082;8.988;2023-02-24T13:54:22;99337.38;;;11.04;60.34
73700;BME280;62005;50.082;8.988;2023-02-24T13:57:00;99339.81;;;11.06;60.84
73700;BME280;62005;50.082;8.988;2023-02-24T13:59:48;99332.47;;;11.01;60.42
73700;BME280;62005;50.082;8.988;2023-02-24T14:02:23;99332.47;;;11.01;60.73
73700;BME280;62005;50.082;8.988;2023-02-24T14:04:53;99330.00;;;11.00;61.11
73700;BME280;62005;50.082;8.988;2023-02-24T14:07:24;99322.97;;;10.99;61.09
73700;BME280;62005;50.082;8.988;2023-02-24T14:09:55;99319.06;;;10.90;60.90
73700;BME280;62005;50.082;8.988;2023-02-24T14:12:24;99317.50;;;10.94;60.60
73700;BME280;62005;50.082;8.988;2023-02-24T14:14:51;99320.22;;;10.94;61.27
73700;BME280;62005;50.082;8.988;2023-02-24T14:17:34;99305.78;;;10.88;61.05
73700;BME280;62005;50.082;8.988;2023-02-24T14:22:55;99302.19;;;10.83;60.55
73700;BME280;62005;50.082;8.988;2023-02-24T14:25:24;99289.13;;;10.75;60.98
73700;BME280;62005;50.082;8.988;2023-02-24T14:27:51;99280.63;;;10.66;61.36
73700;BME280;62005;50.082;8.988;2023-02-24T14:30:37;99292.41;;;10.77;61.46
73700;BME280;62005;50.082;8.988;2023-02-24T14:33:05;99294.53;;;10.75;61.42
73700;BME280;62005;50.082;8.988;2023-02-24T14:35:34;99283.09;;;10.68;61.28
73700;BME280;62005;50.082;8.988;2023-02-24T14:38:00;99283.66;;;10.70;62.23
73700;BME280;62005;50.082;8.988;2023-02-24T14:40:27;99276.63;;;10.69;62.23
73700;BME280;62005;50.082;8.988;2023-02-24T14:42:53;99283.09;;;10.68;62.11
73700;BME280;62005;50.082;8.988;2023-02-24T14:45:22;99263.53;;;10.61;61.98
73700;BME280;62005;50.082;8.988;2023-02-24T14:47:49;99268.38;;;10.59;62.31
73700;BME280;62005;50.082;8.988;2023-02-24T14:50:17;99273.25;;;10.62;62.12
73700;BME280;62005;50.082;8.988;2023-02-24T14:55:21;99258.84;;;10.56;61.93
73700;BME280;62005;50.082;8.988;2023-02-24T14:58:12;99265.59;;;10.53;62.72
73700;BME280;62005;50.082;8.988;2023-02-24T15:00:47;99252.50;;;10.45;62.10
73700;BME280;62005;50.082;8.988;2023-02-24T15:03:24;99266.09;;;10.50;63.14
73700;BME280;62005;50.082;8.988;2023-02-24T15:05:56;99258.75;;;10.46;62.96
73700;BME280;62005;50.082;8.988;2023-02-24T15:08:42;99251.28;;;10.36;63.25
73700;BME280;62005;50.082;8.988;2023-02-24T15:11:19;99258.91;;;10.39;63.88
73700;BME280;62005;50.082;8.988;2023-02-24T15:13:50;99244.19;;;10.30;63.53
73700;BME280;62005;50.082;8.988;2023-02-24T15:16:24;99252.88;;;10.32;63.71
73700;BME280;62005;50.082;8.988;2023-02-24T15:18:56;99243.03;;;10.26;63.80
73700;BME280;62005;50.082;8.988;2023-02-24T15:21:27;99240.91;;;10.28;64.30
73700;BME280;62005;50.082;8.988;2023-02-24T15:24:04;99233.72;;;10.17;64.21
73700;BME280;62005;50.082;8.988;2023-02-24T15:26:40;99237.56;;;10.21;63.80
73700;BME280;62005;50.082;8.988;2023-02-24T15:29:17;99237.56;;;10.21;64.16
73700;BME280;62005;50.082;8.988;2023-02-24T15:31:47;99244.53;;;10.17;64.00
73700;BME280;62005;50.082;8.988;2023-02-24T15:34:20;99224.72;;;10.12;64.38
73700;BME280;62005;50.082;8.988;2023-02-24T15:36:46;99228.16;;;10.07;64.55